Time;durP1;ratioP1;P1;durP2;ratioP2;P2;SDS_P1;SDS_P2;PMS_P1;PMS_P2;Temp;Humidity;BMP_temperature;BMP_pressure;BME280_temperature;BME280_humidity;BME280_pressure;Samples;Min_cycle;Max_cycle;Signal;HPM_P1;HPM_P2
2024/03/07 00:00:33;;;;;;;74.47;26.57;;;8.10;99.90;;;;;;6176149;23;20402;-64
2024/03/07 00:03:00;;;;;;;71.50;26.80;;;8.10;99.90;;;;;;6175467;23;20430;-65
2024/03/07 00:05:27;;;;;;;84.33;26.97;;;8.10;99.90;;;;;;6176663;23;20433;-64
2024/03/07 00:07:54;;;;;;;71.00;30.13;;;8.10;99.90;;;;;;6172767;23;20464;-67
2024/03/07 00:10:23;;;;;;;76.33;26.77;;;8.10;99.90;;;;;;6169437;23;20406;-65
2024/03/07 00:12:49;;;;;;;71.97;26.47;;;8.10;99.90;;;;;;6158612;23;20446;-64
2024/03/07 00:15:17;;;;;;;77.13;26.07;;;8.10;99.90;;;;;;6156892;23;20433;-65
2024/03/07 00:17:44;;;;;;;83.87;27.30;;;8.10;99.90;;;;;;6156217;23;20409;-64
2024/03/07 00:20:15;;;;;;;83.50;29.30;;;8.10;99.90;;;;;;6156765;23;20402;-64
2024/03/07 00:22:42;;;;;;;68.23;26.77;;;8.10;99.90;;;;;;6155843;23;20425;-65
2024/03/07 00:25:10;;;;;;;72.63;26.23;;;8.10;99.90;;;;;;6156632;23;20430;-65
2024/03/07 00:27:39;;;;;;;90.83;27.40;;;8.10;99.90;;;;;;6156487;23;20731;-64
2024/03/07 00:30:08;;;;;;;85.27;29.50;;;8.20;99.90;;;;;;6156363;23;20430;-64
2024/03/07 00:32:39;;;;;;;72.00;28.30;;;8.20;99.90;;;;;;6155225;23;20442;-65
2024/03/07 00:35:08;;;;;;;77.70;26.33;;;8.20;99.90;;;;;;6156532;23;20924;-65
2024/03/07 00:37:35;;;;;;;84.87;31.57;;;8.20;99.90;;;;;;6155822;23;20413;-64
2024/03/07 00:40:02;;;;;;;87.30;28.23;;;8.20;99.90;;;;;;6156097;23;20438;-64
2024/03/07 00:42:29;;;;;;;68.83;27.00;;;8.20;99.90;;;;;;6155113;23;20518;-64
2024/03/07 00:44:58;;;;;;;100.37;30.57;;;8.20;99.90;;;;;;6155702;23;20403;-65
2024/03/07 00:47:24;;;;;;;69.43;24.87;;;8.20;99.90;;;;;;6155796;23;20481;-64
2024/03/07 00:49:51;;;;;;;71.43;28.93;;;8.20;99.90;;;;;;6155783;23;20402;-64
2024/03/07 00:52:18;;;;;;;64.10;25.77;;;8.20;99.90;;;;;;6155408;23;20474;-64
2024/03/07 00:54:45;;;;;;;86.33;30.60;;;8.20;99.90;;;;;;6155868;23;20480;-65
2024/03/07 00:57:12;;;;;;;68.60;27.50;;;8.20;99.90;;;;;;6155422;23;20433;-64
2024/03/07 00:59:39;;;;;;;74.73;22.90;;;8.20;99.90;;;;;;6155776;23;20890;-64
2024/03/07 01:02:08;;;;;;;70.00;25.10;;;8.10;99.90;;;;;;6154935;23;20454;-64
2024/03/07 01:04:35;;;;;;;64.47;25.90;;;8.10;99.90;;;;;;6155782;23;20402;-64
2024/03/07 01:07:03;;;;;;;64.53;24.17;;;8.00;99.90;;;;;;6155884;23;20406;-64
2024/03/07 01:09:30;;;;;;;81.03;26.20;;;8.10;99.90;;;;;;6155682;23;20407;-64
2024/03/07 01:11:58;;;;;;;65.80;26.27;;;8.10;99.90;;;;;;6155727;23;20422;-64
2024/03/07 01:14:25;;;;;;;65.20;22.70;;;8.10;99.90;;;;;;6157058;23;20880;-65
2024/03/07 01:16:52;;;;;;;66.83;25.33;;;8.10;99.90;;;;;;6155511;23;20433;-64
2024/03/07 01:19:20;;;;;;;85.00;29.00;;;8.10;99.90;;;;;;6155615;23;20920;-62
2024/03/07 01:21:47;;;;;;;62.40;24.37;;;8.00;99.90;;;;;;6154804;23;20441;-64
2024/03/07 01:24:17;;;;;;;82.73;26.43;;;8.00;99.90;;;;;;6155422;23;20401;-64
2024/03/07 01:26:44;;;;;;;67.17;26.00;;;8.00;99.90;;;;;;6154952;23;20398;-64
2024/03/07 01:29:11;;;;;;;75.30;26.07;;;8.00;99.90;;;;;;6155104;23;20733;-64
2024/03/07 01:31:38;;;;;;;65.53;24.33;;;8.00;99.90;;;;;;6155018;23;20804;-63
2024/03/07 01:34:05;;;;;;;69.00;23.00;;;7.90;99.90;;;;;;6154926;23;20525;-64
2024/03/07 01:36:33;;;;;;;67.83;25.17;;;7.90;99.90;;;;;;6155066;23;20417;-63
2024/03/07 01:39:00;;;;;;;61.80;25.77;;;7.90;99.90;;;;;;6155855;23;20448;-63
2024/03/07 01:41:27;;;;;;;67.80;23.43;;;7.90;99.90;;;;;;6154668;23;20436;-64
2024/03/07 01:43:54;;;;;;;54.53;23.37;;;7.90;99.90;;;;;;6155015;23;20430;-64
2024/03/07 01:46:21;;;;;;;65.27;25.10;;;7.90;99.90;;;;;;6154900;23;20445;-64
2024/03/07 01:48:48;;;;;;;72.33;25.60;;;7.90;99.90;;;;;;6155168;23;20490;-64
2024/03/07 01:51:16;;;;;;;57.90;23.30;;;7.90;99.90;;;;;;6154961;23;20438;-65
2024/03/07 01:53:45;;;;;;;44.43;19.23;;;7.90;99.90;;;;;;6157172;23;20473;-63
2024/03/07 01:56:12;;;;;;;69.43;21.67;;;7.80;99.90;;;;;;6155110;23;20405;-62
2024/03/07 01:58:39;;;;;;;62.57;25.53;;;7.80;99.90;;;;;;6154657;23;20485;-63
2024/03/07 02:01:07;;;;;;;60.50;22.00;;;7.70;99.90;;;;;;6154407;23;20481;-64
2024/03/07 02:03:36;;;;;;;65.03;23.57;;;7.70;99.90;;;;;;6154565;23;20487;-64
2024/03/07 02:06:03;;;;;;;72.43;24.20;;;7.70;99.90;;;;;;6154613;23;20406;-63
2024/03/07 02:08:31;;;;;;;60.57;23.03;;;7.70;99.90;;;;;;6154695;23;20492;-63
2024/03/07 02:10:59;;;;;;;64.67;24.10;;;7.60;99.90;;;;;;6154451;23;20410;-61
2024/03/07 02:13:26;;;;;;;66.33;24.20;;;7.60;99.90;;;;;;6153924;23;20441;-64
2024/03/07 02:15:53;;;;;;;58.90;24.00;;;7.60;99.90;;;;;;6154725;23;20402;-64
2024/03/07 02:18:22;;;;;;;73.63;24.30;;;7.50;99.90;;;;;;6154397;23;20673;-64
2024/03/07 02:20:50;;;;;;;64.70;24.77;;;7.50;99.90;;;;;;6154535;23;20496;-64
2024/03/07 02:23:17;;;;;;;52.97;22.50;;;7.50;99.90;;;;;;6154202;23;20493;-64
2024/03/07 02:25:44;;;;;;;84.07;27.40;;;7.40;99.90;;;;;;6154640;23;20481;-64
2024/03/07 02:28:11;;;;;;;61.70;23.60;;;7.40;99.90;;;;;;6154121;23;20415;-64
2024/03/07 02:30:38;;;;;;;56.80;23.60;;;7.40;99.90;;;;;;6155874;23;20409;-64
2024/03/07 02:33:07;;;;;;;48.27;21.97;;;7.40;99.90;;;;;;6153848;23;20465;-64
2024/03/07 02:35:35;;;;;;;53.97;22.83;;;7.30;99.90;;;;;;6154759;23;20412;-64
2024/03/07 02:38:05;;;;;;;59.13;23.97;;;7.30;99.90;;;;;;6154553;23;20409;-64
2024/03/07 02:40:32;;;;;;;56.93;24.37;;;7.30;99.90;;;;;;6154243;23;20445;-64
2024/03/07 02:42:59;;;;;;;54.97;22.70;;;7.20;99.90;;;;;;6154179;23;20425;-64
2024/03/07 02:45:26;;;;;;;73.57;25.00;;;7.30;99.90;;;;;;6154599;23;20434;-64
2024/03/07 02:47:53;;;;;;;60.13;23.63;;;7.30;99.90;;;;;;6154115;23;20889;-64
2024/03/07 02:50:22;;;;;;;64.47;24.03;;;7.30;99.90;;;;;;6154615;23;20410;-64
2024/03/07 02:52:49;;;;;;;59.17;24.60;;;7.20;99.90;;;;;;6153587;23;20422;-63
2024/03/07 02:55:18;;;;;;;61.23;23.57;;;7.20;99.90;;;;;;6152888;23;20425;-64
2024/03/07 02:57:46;;;;;;;66.43;23.10;;;7.20;99.90;;;;;;6152631;23;20406;-64
2024/03/07 03:00:26;;;;;;;56.23;21.63;;;7.20;99.90;;;;;;6152955;23;20408;-64
2024/03/07 03:02:54;;;;;;;57.43;21.43;;;7.20;99.90;;;;;;6153890;23;20426;-64
2024/03/07 03:05:20;;;;;;;56.90;23.50;;;7.10;99.90;;;;;;6152610;23;20412;-64
2024/03/07 03:07:53;;;;;;;50.97;22.20;;;7.10;99.90;;;;;;6154974;23;20947;-64
2024/03/07 03:10:24;;;;;;;67.50;24.07;;;7.10;99.90;;;;;;6154081;23;20401;-64
2024/03/07 03:12:53;;;;;;;67.03;26.27;;;7.00;99.90;;;;;;6153668;23;20512;-64
2024/03/07 03:15:20;;;;;;;59.80;24.30;;;7.00;99.90;;;;;;6154511;23;20417;-64
2024/03/07 03:17:48;;;;;;;60.07;22.33;;;6.90;99.90;;;;;;6154179;23;20469;-64
2024/03/07 03:20:25;;;;;;;69.37;23.37;;;6.90;99.90;;;;;;6155453;23;20433;-62
2024/03/07 03:22:53;;;;;;;48.53;23.77;;;6.90;99.90;;;;;;6154272;23;20418;-64
2024/03/07 03:25:23;;;;;;;69.20;23.93;;;6.90;99.90;;;;;;6155159;23;20901;-64
2024/03/07 03:27:50;;;;;;;57.23;23.77;;;6.90;99.90;;;;;;6154500;23;20407;-64
2024/03/07 03:30:18;;;;;;;58.03;23.13;;;6.90;99.90;;;;;;6155209;23;20402;-64
2024/03/07 03:32:47;;;;;;;54.03;23.67;;;6.80;99.90;;;;;;6153820;23;20433;-63
2024/03/07 03:35:14;;;;;;;66.97;22.70;;;6.80;99.90;;;;;;6154634;23;20409;-63
2024/03/07 03:37:42;;;;;;;51.27;22.60;;;6.70;99.90;;;;;;6154279;23;20939;-63
2024/03/07 03:40:10;;;;;;;55.43;21.37;;;6.70;99.90;;;;;;6154276;23;20398;-64
2024/03/07 03:42:38;;;;;;;61.93;24.10;;;6.70;99.90;;;;;;6154051;23;20429;-64
2024/03/07 03:45:07;;;;;;;63.53;22.83;;;6.60;99.90;;;;;;6154794;23;20449;-64
2024/03/07 03:47:35;;;;;;;57.17;23.23;;;6.60;99.90;;;;;;6154517;23;20417;-65
2024/03/07 03:50:03;;;;;;;53.20;20.97;;;6.60;99.90;;;;;;6154668;23;20402;-63
2024/03/07 03:52:30;;;;;;;58.07;23.10;;;6.50;99.90;;;;;;6154351;23;20477;-63
2024/03/07 03:54:57;;;;;;;49.30;22.23;;;6.50;99.90;;;;;;6154555;23;20441;-65
2024/03/07 03:57:24;;;;;;;46.53;22.30;;;6.50;99.90;;;;;;6154965;23;20441;-62
2024/03/07 03:59:52;;;;;;;46.30;21.53;;;6.50;99.90;;;;;;6156240;23;20481;-64
2024/03/07 04:02:19;;;;;;;51.53;21.60;;;6.50;99.90;;;;;;6155174;23;20513;-64
2024/03/07 04:04:46;;;;;;;41.23;21.47;;;6.40;99.90;;;;;;6157145;23;20770;-64
2024/03/07 04:07:13;;;;;;;46.13;20.43;;;6.40;99.90;;;;;;6156615;23;20402;-64
2024/03/07 04:09:40;;;;;;;45.10;22.17;;;6.40;99.90;;;;;;6156408;23;20451;-64
2024/03/07 04:12:10;;;;;;;42.30;20.70;;;6.30;99.90;;;;;;6155915;23;20982;-64
2024/03/07 04:14:37;;;;;;;40.10;21.67;;;6.30;99.90;;;;;;6155493;23;20444;-64
2024/03/07 04:17:06;;;;;;;39.57;20.30;;;6.30;99.90;;;;;;6156235;23;20468;-64
2024/03/07 04:19:34;;;;;;;35.73;19.20;;;6.20;99.90;;;;;;6156199;23;20406;-64
2024/03/07 04:22:02;;;;;;;38.37;18.33;;;6.20;99.90;;;;;;6155117;23;20430;-64
2024/03/07 04:24:32;;;;;;;55.07;24.70;;;6.20;99.90;;;;;;6157192;23;20438;-64
2024/03/07 04:26:59;;;;;;;37.50;17.23;;;6.20;99.90;;;;;;6156093;23;20410;-64
2024/03/07 04:29:26;;;;;;;44.50;20.00;;;6.10;99.90;;;;;;6155568;23;20481;-64
2024/03/07 04:31:53;;;;;;;39.70;20.90;;;6.10;99.90;;;;;;6155636;23;20506;-64
2024/03/07 04:34:21;;;;;;;34.87;19.77;;;6.10;99.90;;;;;;6155912;23;20513;-64
2024/03/07 04:36:48;;;;;;;36.00;18.90;;;6.10;99.90;;;;;;6155545;23;20478;-64
2024/03/07 04:39:24;;;;;;;45.97;20.53;;;6.10;99.90;;;;;;6155268;23;20489;-64
2024/03/07 04:41:52;;;;;;;45.47;21.10;;;6.10;99.90;;;;;;6155220;23;20811;-62
2024/03/07 04:44:22;;;;;;;36.97;18.70;;;6.00;99.90;;;;;;6155654;23;20410;-64
2024/03/07 04:46:49;;;;;;;44.47;19.23;;;6.00;99.90;;;;;;6155338;23;20629;-64
2024/03/07 04:49:16;;;;;;;48.70;19.13;;;6.00;99.90;;;;;;6155281;23;20413;-64
2024/03/07 04:51:44;;;;;;;42.73;20.07;;;6.00;99.90;;;;;;6154732;23;20454;-64
2024/03/07 04:54:11;;;;;;;55.60;22.03;;;5.90;99.90;;;;;;6155497;23;20492;-64
2024/03/07 04:56:38;;;;;;;34.43;20.23;;;5.90;99.90;;;;;;6153414;23;20791;-64
2024/03/07 04:59:05;;;;;;;43.70;19.73;;;5.80;99.90;;;;;;6153396;23;20485;-64
2024/03/07 05:01:32;;;;;;;42.40;17.93;;;5.80;99.90;;;;;;6152654;23;20562;-64
2024/03/07 05:03:59;;;;;;;54.83;20.80;;;5.80;99.90;;;;;;6155142;23;20398;-64
2024/03/07 05:06:26;;;;;;;40.37;19.73;;;5.80;99.90;;;;;;6153967;23;20740;-64
2024/03/07 05:08:54;;;;;;;45.87;19.40;;;5.80;99.90;;;;;;6154755;23;20957;-64
2024/03/07 05:11:21;;;;;;;41.50;18.27;;;5.70;99.90;;;;;;6154812;23;20448;-64
2024/03/07 05:13:48;;;;;;;36.53;19.40;;;5.70;99.90;;;;;;6154915;23;20444;-64
2024/03/07 05:16:15;;;;;;;47.03;20.37;;;5.70;99.90;;;;;;6155570;23;20410;-63
2024/03/07 05:18:44;;;;;;;42.73;18.60;;;5.70;99.90;;;;;;6155158;23;20406;-64
2024/03/07 05:23:51;;;;;;;38.97;19.67;;;5.70;99.90;;;;;;6153676;23;20429;-64
2024/03/07 05:26:19;;;;;;;35.30;19.17;;;5.80;99.90;;;;;;6155782;23;20398;-64
2024/03/07 05:28:46;;;;;;;39.67;19.90;;;5.80;99.90;;;;;;6155697;23;20458;-64
2024/03/07 05:31:14;;;;;;;34.10;19.70;;;5.80;99.90;;;;;;6154667;23;20426;-64
2024/03/07 05:33:41;;;;;;;40.30;18.77;;;5.70;99.90;;;;;;6154915;23;20450;-64
2024/03/07 05:36:14;;;;;;;42.77;21.00;;;5.70;99.90;;;;;;6155054;23;20409;-64
2024/03/07 05:38:43;;;;;;;41.70;18.70;;;5.70;99.90;;;;;;6155358;23;20422;-64
2024/03/07 05:41:10;;;;;;;40.87;19.27;;;5.70;99.90;;;;;;6155279;23;20415;-64
2024/03/07 05:43:38;;;;;;;42.37;17.57;;;5.70;99.90;;;;;;6154556;23;20453;-64
2024/03/07 05:46:06;;;;;;;36.17;18.10;;;5.70;99.90;;;;;;6154674;23;20921;-64
2024/03/07 05:48:34;;;;;;;44.50;18.30;;;5.70;99.90;;;;;;6155424;23;20469;-65
2024/03/07 05:51:01;;;;;;;34.60;18.93;;;5.60;99.90;;;;;;6154993;23;20484;-64
2024/03/07 05:53:27;;;;;;;45.63;21.17;;;5.60;99.90;;;;;;6154552;23;20462;-63
2024/03/07 05:55:55;;;;;;;37.17;19.07;;;5.60;99.90;;;;;;6155028;23;20798;-65
2024/03/07 05:58:22;;;;;;;35.67;18.60;;;5.60;99.90;;;;;;6152480;23;20931;-63
2024/03/07 06:00:51;;;;;;;38.63;18.50;;;5.60;99.90;;;;;;6153003;23;20498;-63
2024/03/07 06:03:19;;;;;;;36.77;18.57;;;5.60;99.90;;;;;;6152956;23;20537;-64
2024/03/07 06:05:48;;;;;;;49.43;20.27;;;5.60;99.90;;;;;;6154151;23;20403;-64
2024/03/07 06:08:16;;;;;;;44.57;18.70;;;5.60;99.90;;;;;;6153761;23;20406;-63
2024/03/07 06:10:43;;;;;;;30.50;17.10;;;5.60;99.90;;;;;;6154457;23;20413;-64
2024/03/07 06:13:11;;;;;;;30.47;15.97;;;5.50;99.90;;;;;;6154277;23;20422;-64
2024/03/07 06:15:39;;;;;;;28.20;16.10;;;5.40;99.90;;;;;;6153394;23;20522;-64
2024/03/07 06:18:08;;;;;;;34.27;16.10;;;5.40;99.90;;;;;;6153117;23;20755;-64
2024/03/07 06:20:35;;;;;;;30.50;16.50;;;5.40;99.90;;;;;;6153739;23;20415;-66
2024/03/07 06:23:04;;;;;;;28.40;14.80;;;5.40;99.90;;;;;;6153382;23;20426;-65
2024/03/07 06:25:36;;;;;;;34.83;19.27;;;5.40;99.90;;;;;;6154691;23;20402;-64
2024/03/07 06:28:10;;;;;;;31.50;14.50;;;5.40;99.90;;;;;;6154463;23;20386;-64
2024/03/07 06:30:39;;;;;;;37.97;15.60;;;5.40;99.90;;;;;;6154260;23;20482;-53
2024/03/07 06:33:07;;;;;;;35.47;17.50;;;5.40;99.90;;;;;;6152151;23;20481;-53
2024/03/07 06:35:36;;;;;;;30.23;18.33;;;5.30;99.90;;;;;;6151555;23;20755;-50
2024/03/07 06:38:04;;;;;;;26.90;16.23;;;5.40;99.90;;;;;;6152914;23;20530;-51
2024/03/07 06:40:30;;;;;;;32.13;15.30;;;5.40;99.90;;;;;;6152998;23;20414;-52
2024/03/07 06:42:57;;;;;;;28.00;15.80;;;5.40;99.90;;;;;;6152825;23;20984;-54
2024/03/07 06:45:24;;;;;;;34.00;15.67;;;5.40;99.90;;;;;;6152765;23;20485;-50
2024/03/07 06:47:52;;;;;;;26.37;15.40;;;5.50;99.90;;;;;;6153976;23;20437;-52
2024/03/07 06:50:21;;;;;;;27.67;14.00;;;5.40;99.90;;;;;;6152348;23;20935;-49
2024/03/07 06:52:48;;;;;;;26.87;14.70;;;5.50;99.90;;;;;;6153428;23;20952;-51
2024/03/07 06:55:17;;;;;;;25.07;15.80;;;5.50;99.90;;;;;;6152677;23;20504;-50
2024/03/07 06:57:44;;;;;;;26.70;14.60;;;5.60;99.90;;;;;;6154037;23;20403;-55
2024/03/07 07:00:12;;;;;;;26.03;12.90;;;5.50;99.90;;;;;;6153006;23;20489;-53
2024/03/07 07:02:39;;;;;;;22.83;13.47;;;5.50;99.90;;;;;;6152531;23;20429;-50
2024/03/07 07:05:10;;;;;;;22.50;11.77;;;5.60;99.90;;;;;;6153247;23;20434;-52
2024/03/07 07:07:41;;;;;;;23.00;13.07;;;5.60;99.90;;;;;;6152207;23;20442;-53
2024/03/07 07:10:12;;;;;;;30.17;12.00;;;5.60;99.90;;;;;;6151023;23;20422;-55
2024/03/07 07:12:38;;;;;;;26.93;13.30;;;5.60;99.90;;;;;;6150061;23;20430;-52
2024/03/07 07:15:06;;;;;;;26.07;13.23;;;5.70;99.90;;;;;;6153191;23;20476;-51
2024/03/07 07:17:33;;;;;;;20.77;13.93;;;5.70;99.90;;;;;;6153928;23;20485;-51
2024/03/07 07:20:00;;;;;;;25.87;13.57;;;5.70;99.90;;;;;;6153102;23;20403;-49
2024/03/07 07:22:27;;;;;;;20.57;13.53;;;5.70;99.90;;;;;;6153178;23;20513;-65
2024/03/07 07:24:55;;;;;;;27.03;12.97;;;5.70;99.90;;;;;;6151939;23;20398;-62
2024/03/07 07:27:21;;;;;;;38.17;13.97;;;5.70;99.90;;;;;;6153277;23;20414;-63
2024/03/07 07:29:48;;;;;;;23.93;14.40;;;5.70;99.90;;;;;;6154059;23;20407;-63
2024/03/07 07:32:15;;;;;;;25.77;12.40;;;5.80;99.90;;;;;;6151403;23;20449;-63
2024/03/07 07:34:43;;;;;;;22.40;12.53;;;5.80;99.90;;;;;;6155472;23;20437;-64
2024/03/07 07:37:10;;;;;;;20.03;12.20;;;5.80;99.90;;;;;;6156204;23;20405;-64
2024/03/07 07:39:37;;;;;;;23.00;12.57;;;5.90;99.90;;;;;;6156257;23;20409;-63
2024/03/07 07:42:05;;;;;;;25.40;12.23;;;5.90;99.90;;;;;;6155366;23;20454;-62
2024/03/07 07:44:33;;;;;;;25.50;13.33;;;6.00;99.90;;;;;;6156046;23;20434;-64
2024/03/07 07:47:01;;;;;;;22.30;13.43;;;6.00;99.90;;;;;;6154459;23;20915;-64
2024/03/07 07:49:28;;;;;;;24.63;12.33;;;6.00;99.90;;;;;;6155360;23;20460;-63
2024/03/07 07:51:55;;;;;;;23.70;11.27;;;6.00;99.90;;;;;;6154565;23;20430;-61
2024/03/07 07:54:22;;;;;;;21.27;11.47;;;6.00;99.90;;;;;;6155405;23;20410;-63
2024/03/07 07:56:49;;;;;;;17.23;10.37;;;6.10;99.90;;;;;;6155932;23;20398;-63
2024/03/07 07:59:17;;;;;;;27.00;13.40;;;6.10;99.90;;;;;;6154932;23;20742;-63
2024/03/07 08:01:44;;;;;;;25.37;11.97;;;6.10;99.90;;;;;;6155048;23;20457;-64
2024/03/07 08:04:11;;;;;;;25.43;11.60;;;6.10;99.90;;;;;;6155537;23;20489;-63
2024/03/07 08:06:38;;;;;;;24.70;12.37;;;6.20;99.90;;;;;;6155919;23;20774;-62
2024/03/07 08:09:09;;;;;;;22.77;12.00;;;6.20;99.90;;;;;;6155175;23;20464;-64
2024/03/07 08:11:36;;;;;;;24.70;12.70;;;6.40;99.90;;;;;;6155345;23;20477;-64
2024/03/07 08:14:03;;;;;;;23.30;11.77;;;6.50;99.90;;;;;;6155761;23;20966;-65
2024/03/07 08:16:31;;;;;;;20.43;11.07;;;6.50;99.90;;;;;;6155097;23;20438;-63
2024/03/07 08:18:58;;;;;;;26.83;12.73;;;6.60;99.90;;;;;;6154451;23;20406;-65
2024/03/07 08:21:25;;;;;;;20.70;11.80;;;6.60;99.90;;;;;;6154839;23;20490;-66
2024/03/07 08:23:52;;;;;;;26.30;11.37;;;6.70;99.90;;;;;;6155759;23;20792;-65
2024/03/07 08:26:19;;;;;;;25.43;12.40;;;6.70;99.90;;;;;;6156440;23;20425;-65
2024/03/07 08:28:46;;;;;;;24.20;11.93;;;6.80;99.90;;;;;;6155910;23;20590;-66
2024/03/07 08:31:13;;;;;;;18.10;10.90;;;6.80;99.90;;;;;;6154971;23;20793;-67
2024/03/07 08:33:42;;;;;;;19.90;12.03;;;6.90;99.90;;;;;;6155025;23;20501;-63
2024/03/07 08:36:09;;;;;;;25.80;11.33;;;6.90;99.90;;;;;;6155107;23;20959;-65
2024/03/07 08:38:38;;;;;;;16.90;10.93;;;7.00;99.90;;;;;;6154503;23;20414;-64
2024/03/07 08:41:05;;;;;;;19.97;9.93;;;7.00;99.90;;;;;;6154732;23;20453;-64
2024/03/07 08:43:32;;;;;;;20.67;11.43;;;7.10;99.90;;;;;;6154546;23;20422;-65
2024/03/07 08:45:59;;;;;;;20.07;11.87;;;7.10;99.90;;;;;;6155441;23;20465;-64
2024/03/07 08:48:26;;;;;;;24.10;12.80;;;7.20;99.90;;;;;;6156185;23;20385;-64
2024/03/07 08:50:54;;;;;;;21.30;11.00;;;7.30;99.90;;;;;;6157108;23;20413;-64
2024/03/07 08:53:21;;;;;;;18.90;10.70;;;7.40;99.90;;;;;;6155800;23;20429;-61
2024/03/07 08:55:48;;;;;;;21.50;9.97;;;7.50;99.90;;;;;;6155844;23;20840;-66
2024/03/07 08:58:15;;;;;;;22.40;10.50;;;7.60;99.90;;;;;;6155125;23;20482;-65
2024/03/07 09:00:42;;;;;;;18.50;10.10;;;7.90;99.90;;;;;;6155581;23;20410;-66
2024/03/07 09:03:10;;;;;;;22.37;11.80;;;8.80;99.90;;;;;;6155052;23;20545;-65
2024/03/07 09:05:37;;;;;;;15.13;9.10;;;10.10;99.90;;;;;;6154680;23;20731;-66
2024/03/07 09:08:07;;;;;;;14.10;10.60;;;11.50;99.90;;;;;;6155434;23;20752;-66
2024/03/07 09:10:34;;;;;;;11.90;9.47;;;12.70;99.90;;;;;;6154714;23;20413;-63
2024/03/07 09:13:02;;;;;;;15.70;10.47;;;14.00;99.90;;;;;;6154174;23;20432;-64
2024/03/07 09:15:29;;;;;;;17.23;10.70;;;14.90;94.10;;;;;;6154930;23;20444;-64
2024/03/07 09:17:55;;;;;;;17.93;10.10;;;15.70;90.10;;;;;;6155293;23;20477;-62
2024/03/07 09:20:23;;;;;;;19.70;12.07;;;16.50;81.10;;;;;;6154838;23;20445;-63
2024/03/07 09:22:50;;;;;;;16.07;10.57;;;17.00;74.30;;;;;;6154646;23;20811;-64
2024/03/07 09:25:19;;;;;;;14.00;9.63;;;17.60;69.30;;;;;;6154301;23;20404;-63
2024/03/07 09:27:46;;;;;;;15.10;9.30;;;18.10;65.40;;;;;;6154862;23;20402;-64
2024/03/07 09:30:16;;;;;;;18.37;10.90;;;18.50;61.20;;;;;;6154048;23;20952;-65
2024/03/07 09:32:44;;;;;;;15.17;10.17;;;18.40;62.40;;;;;;6155235;23;20426;-64
2024/03/07 09:35:13;;;;;;;13.10;9.23;;;17.40;59.50;;;;;;6153152;23;20506;-63
2024/03/07 09:37:41;;;;;;;13.13;9.80;;;16.20;60.70;;;;;;6154911;23;20406;-65
2024/03/07 09:40:10;;;;;;;20.90;10.03;;;15.30;61.30;;;;;;6153645;23;20417;-63
2024/03/07 09:42:44;;;;;;;15.90;10.60;;;14.40;63.20;;;;;;6154496;23;20449;-64
2024/03/07 09:45:14;;;;;;;14.00;9.97;;;13.60;66.30;;;;;;6154917;23;20425;-63
2024/03/07 09:47:42;;;;;;;13.60;9.60;;;13.20;67.90;;;;;;6154627;23;20414;-63
2024/03/07 09:50:10;;;;;;;14.70;9.47;;;13.40;69.80;;;;;;6154365;23;20414;-64
2024/03/07 09:52:37;;;;;;;14.73;9.13;;;14.10;68.60;;;;;;6153886;23;20758;-64
2024/03/07 09:55:05;;;;;;;14.97;8.00;;;15.10;66.30;;;;;;6153492;23;20442;-63
2024/03/07 09:57:35;;;;;;;11.27;8.53;;;16.00;63.20;;;;;;6154763;23;20417;-65
2024/03/07 10:00:06;;;;;;;22.50;9.23;;;17.10;59.40;;;;;;6154825;23;20743;-64
2024/03/07 10:02:37;;;;;;;12.10;8.60;;;17.70;56.20;;;;;;6153854;23;20433;-64
2024/03/07 10:05:07;;;;;;;20.73;11.07;;;18.10;55.00;;;;;;6154345;23;20415;-61
2024/03/07 10:07:35;;;;;;;13.40;9.70;;;18.30;54.30;;;;;;6154137;23;20884;-63
2024/03/07 10:10:09;;;;;;;10.67;8.70;;;18.50;52.90;;;;;;6154252;23;20414;-63
2024/03/07 10:12:37;;;;;;;16.60;11.53;;;18.50;52.30;;;;;;6153271;23;20431;-63
2024/03/07 10:15:12;;;;;;;12.73;9.13;;;18.20;52.70;;;;;;6154325;23;20485;-62
2024/03/07 10:17:39;;;;;;;13.80;9.63;;;18.30;52.90;;;;;;6153845;23;20418;-63
2024/03/07 10:20:09;;;;;;;13.80;9.30;;;18.60;52.00;;;;;;6153575;23;20410;-64
2024/03/07 10:22:37;;;;;;;10.27;7.43;;;18.70;50.70;;;;;;6153855;23;20521;-62
2024/03/07 10:25:05;;;;;;;13.70;8.90;;;18.80;49.70;;;;;;6151219;23;20472;-64
2024/03/07 10:27:32;;;;;;;14.10;9.30;;;18.60;50.10;;;;;;6153422;23;20407;-64
2024/03/07 10:30:00;;;;;;;10.80;8.00;;;18.80;49.20;;;;;;6153279;23;20403;-63
2024/03/07 10:32:31;;;;;;;13.30;8.93;;;18.70;49.00;;;;;;6152372;23;20521;-64
2024/03/07 10:34:58;;;;;;;13.60;10.07;;;18.60;48.70;;;;;;6153186;23;20485;-65
2024/03/07 10:37:25;;;;;;;16.00;8.47;;;18.50;49.50;;;;;;6154385;23;20406;-64
2024/03/07 10:39:53;;;;;;;13.40;9.30;;;18.50;49.20;;;;;;6154300;23;20421;-65
2024/03/07 10:42:24;;;;;;;12.17;8.67;;;18.40;48.70;;;;;;6153623;23;20426;-65
2024/03/07 10:44:50;;;;;;;15.67;7.83;;;18.20;48.70;;;;;;6154267;23;20410;-64
2024/03/07 10:47:19;;;;;;;14.73;8.40;;;18.20;48.70;;;;;;6153368;23;20414;-63
2024/03/07 10:50:12;;;;;;;13.50;7.73;;;18.40;48.30;;;;;;6154395;23;20469;-64
2024/03/07 10:52:45;;;;;;;18.50;9.83;;;18.30;47.90;;;;;;6154134;23;20485;-65
2024/03/07 10:55:23;;;;;;;14.50;8.50;;;18.10;48.50;;;;;;6154704;23;20375;-65
2024/03/07 10:57:58;;;;;;;11.67;8.60;;;17.80;48.00;;;;;;6154212;23;20862;-64
2024/03/07 11:00:35;;;;;;;12.77;9.10;;;17.70;48.30;;;;;;6153931;23;20782;-65
2024/03/07 11:03:06;;;;;;;11.80;8.13;;;17.50;48.90;;;;;;6153392;23;20441;-65
2024/03/07 11:05:35;;;;;;;11.03;8.20;;;17.20;48.90;;;;;;6153560;23;20394;-66
2024/03/07 11:08:08;;;;;;;15.60;8.70;;;16.80;50.00;;;;;;6154353;23;20410;-65
2024/03/07 11:10:37;;;;;;;14.30;9.20;;;16.70;50.10;;;;;;6153900;23;20490;-64
2024/03/07 11:13:05;;;;;;;21.63;9.00;;;16.40;50.40;;;;;;6153189;23;20428;-65
2024/03/07 11:15:34;;;;;;;15.07;9.67;;;16.00;51.00;;;;;;6154053;23;20772;-66
2024/03/07 11:18:01;;;;;;;18.57;9.20;;;15.70;51.90;;;;;;6153836;23;20460;-65
2024/03/07 11:20:37;;;;;;;13.70;8.47;;;15.30;52.70;;;;;;6154135;23;20483;-65
2024/03/07 11:23:28;;;;;;;16.93;9.43;;;15.10;52.90;;;;;;6173379;23;20448;-65
2024/03/07 11:25:55;;;;;;;14.83;9.10;;;15.00;53.30;;;;;;6183459;23;20515;-64
2024/03/07 11:28:31;;;;;;;18.07;10.60;;;14.60;53.50;;;;;;6182824;23;20409;-62
2024/03/07 11:31:09;;;;;;;15.60;8.53;;;14.30;53.60;;;;;;6183866;23;20381;-64
2024/03/07 11:33:39;;;;;;;11.83;8.10;;;14.00;54.90;;;;;;6154324;23;20473;-63
2024/03/07 11:36:09;;;;;;;12.33;7.97;;;13.60;55.10;;;;;;6153221;23;20744;-61
2024/03/07 11:38:37;;;;;;;16.13;10.10;;;13.40;55.40;;;;;;6153577;23;20635;-65
2024/03/07 11:41:08;;;;;;;11.80;7.47;;;13.10;56.10;;;;;;6153929;23;20410;-64
2024/03/07 11:43:35;;;;;;;16.90;9.47;;;13.00;56.60;;;;;;6153642;23;20453;-64
2024/03/07 11:46:02;;;;;;;18.63;8.87;;;12.80;56.90;;;;;;6153905;23;20402;-64
2024/03/07 11:48:31;;;;;;;14.77;8.43;;;12.60;57.70;;;;;;6154142;23;20489;-62
2024/03/07 11:50:58;;;;;;;18.57;9.13;;;12.40;57.80;;;;;;6153586;23;20429;-62
2024/03/07 11:53:27;;;;;;;19.00;12.20;;;12.20;57.90;;;;;;6152949;23;20429;-65
2024/03/07 11:55:54;;;;;;;25.10;11.80;;;12.10;58.60;;;;;;6153571;23;20529;-65
2024/03/07 11:58:22;;;;;;;12.87;8.43;;;11.90;59.20;;;;;;6154535;23;20477;-64
2024/03/07 12:00:51;;;;;;;17.17;11.00;;;11.80;59.40;;;;;;6154901;23;20406;-66
2024/03/07 12:03:21;;;;;;;16.00;9.00;;;11.80;59.90;;;;;;6153566;23;20437;-62
2024/03/07 12:05:48;;;;;;;15.27;10.70;;;11.70;60.10;;;;;;6154702;23;20406;-65
2024/03/07 12:08:17;;;;;;;19.73;8.90;;;11.60;61.00;;;;;;6154182;23;20434;-62
2024/03/07 12:10:46;;;;;;;14.27;9.07;;;11.60;60.60;;;;;;6154270;23;20413;-63
2024/03/07 12:13:15;;;;;;;13.13;8.40;;;11.70;60.10;;;;;;6153467;23;20464;-62
2024/03/07 12:15:43;;;;;;;15.97;9.00;;;11.60;60.50;;;;;;6153661;23;20416;-64
2024/03/07 12:18:17;;;;;;;13.90;9.60;;;11.60;60.00;;;;;;6153826;23;20721;-64
2024/03/07 12:20:50;;;;;;;14.63;9.03;;;11.60;61.30;;;;;;6155565;23;20394;-63
2024/03/07 12:23:19;;;;;;;16.70;9.73;;;11.50;61.10;;;;;;6155095;23;20430;-64
2024/03/07 12:25:47;;;;;;;12.43;8.53;;;11.50;61.80;;;;;;6155151;23;20410;-64
2024/03/07 12:28:17;;;;;;;13.07;8.23;;;11.50;61.50;;;;;;6154485;23;20469;-64
2024/03/07 12:30:51;;;;;;;13.30;8.30;;;11.50;60.40;;;;;;6155763;23;20402;-64
2024/03/07 12:33:19;;;;;;;14.57;8.97;;;11.40;60.10;;;;;;6155722;23;20422;-64
2024/03/07 12:35:47;;;;;;;13.70;7.87;;;11.40;60.30;;;;;;6158958;23;20406;-63
2024/03/07 12:38:16;;;;;;;26.67;9.10;;;11.40;60.30;;;;;;6156203;23;20761;-64
2024/03/07 12:40:43;;;;;;;18.47;8.93;;;11.50;60.10;;;;;;6156006;23;20413;-64
2024/03/07 12:43:33;;;;;;;17.13;9.53;;;11.50;60.20;;;;;;6166720;23;20454;-62